createdAt,value
2023-02-14T00:04:44.340Z,2.65
2023-02-14T00:10:15.458Z,2.63
2023-02-14T00:15:47.024Z,2.58
2023-02-14T00:21:18.407Z,2.57
2023-02-14T00:26:50.525Z,2.55
2023-02-14T00:32:21.693Z,2.53
2023-02-14T00:37:52.808Z,2.51
2023-02-14T00:43:23.970Z,2.48
2023-02-14T00:48:55.564Z,2.47
2023-02-14T00:54:26.880Z,2.45
2023-02-14T00:59:58.841Z,2.43
2023-02-14T01:05:31.422Z,2.42
2023-02-14T01:11:14.491Z,2.40
2023-02-14T01:16:45.637Z,2.38
2023-02-14T01:22:16.859Z,2.36
2023-02-14T01:27:48.571Z,2.36
2023-02-14T01:33:19.589Z,2.35
2023-02-14T01:38:57.055Z,2.36
2023-02-14T01:44:28.412Z,2.35
2023-02-14T01:50:14.031Z,2.36
2023-02-14T01:55:48.763Z,2.38
2023-02-14T02:01:20.427Z,2.37
2023-02-14T02:06:55.759Z,2.38
2023-02-14T02:12:29.792Z,2.37
2023-02-14T02:18:08.783Z,2.38
2023-02-14T02:23:46.119Z,2.38
2023-02-14T02:29:29.429Z,2.36
2023-02-14T02:35:28.175Z,2.36
2023-02-14T02:41:05.320Z,2.37
2023-02-14T02:46:47.791Z,2.37
2023-02-14T02:52:54.184Z,2.36
2023-02-14T02:58:31.172Z,2.37
2023-02-14T03:04:27.714Z,2.38
2023-02-14T03:10:00.616Z,2.38
2023-02-14T03:15:47.213Z,2.38
2023-02-14T03:21:52.820Z,2.37
2023-02-14T03:27:40.132Z,2.38
2023-02-14T03:33:19.451Z,2.40
2023-02-14T03:39:08.485Z,2.38
2023-02-14T03:44:42.373Z,2.41
2023-02-14T03:50:18.803Z,2.40
2023-02-14T03:56:04.488Z,2.41
2023-02-14T04:01:39.463Z,2.42
2023-02-14T04:07:12.423Z,2.41
2023-02-14T04:12:44.002Z,2.41
2023-02-14T04:18:34.102Z,2.43
2023-02-14T04:24:05.826Z,2.42
2023-02-14T04:29:38.408Z,2.41
2023-02-14T04:35:09.688Z,2.42
2023-02-14T04:40:40.877Z,2.43
2023-02-14T04:46:11.952Z,2.40
2023-02-14T04:51:43.461Z,2.40
2023-02-14T04:57:14.560Z,2.40
2023-02-14T05:02:45.893Z,2.40
2023-02-14T05:08:16.912Z,2.40
2023-02-14T05:13:47.936Z,2.42
2023-02-14T05:19:18.815Z,2.40
2023-02-14T05:24:50.517Z,2.41
2023-02-14T05:30:28.159Z,2.40
2023-02-14T05:36:03.176Z,2.42
2023-02-14T05:41:34.284Z,2.43
2023-02-14T05:47:05.615Z,2.42
2023-02-14T05:52:37.476Z,2.42
2023-02-14T05:58:08.634Z,2.43
2023-02-14T06:03:39.702Z,2.41
2023-02-14T06:09:10.897Z,2.41
2023-02-14T06:14:43.326Z,2.42
2023-02-14T06:20:14.536Z,2.41
2023-02-14T06:25:45.901Z,2.41
2023-02-14T06:31:18.222Z,2.40
2023-02-14T06:36:49.524Z,2.40
2023-02-14T06:42:20.845Z,2.42
2023-02-14T06:47:52.245Z,2.44
2023-02-14T06:53:23.247Z,2.42
2023-02-14T06:58:54.646Z,2.41
2023-02-14T07:04:25.928Z,2.42
2023-02-14T07:09:57.040Z,2.44
2023-02-14T07:15:28.439Z,2.51
2023-02-14T07:20:59.944Z,2.55
2023-02-14T07:26:31.583Z,2.57
2023-02-14T07:32:02.963Z,2.58
2023-02-14T07:37:35.639Z,2.59
2023-02-14T07:43:08.156Z,2.62
2023-02-14T07:48:39.929Z,2.64
2023-02-14T07:54:11.647Z,2.63
2023-02-14T07:59:42.719Z,2.64
2023-02-14T08:05:15.033Z,2.68
2023-02-14T08:10:46.386Z,2.63
2023-02-14T08:16:17.754Z,2.62
2023-02-14T08:21:48.844Z,2.61
2023-02-14T08:27:19.774Z,2.62
2023-02-14T08:32:50.843Z,2.65
2023-02-14T08:38:22.505Z,2.64
2023-02-14T08:43:54.071Z,2.65
2023-02-14T08:49:25.104Z,2.65
2023-02-14T08:54:56.289Z,2.66
2023-02-14T09:00:27.775Z,2.68
2023-02-14T09:06:04.930Z,2.70
2023-02-14T09:11:36.494Z,2.71
2023-02-14T09:17:08.078Z,2.74
2023-02-14T09:22:39.355Z,2.76
2023-02-14T09:28:10.710Z,2.79
2023-02-14T09:33:42.885Z,2.81
2023-02-14T09:39:14.155Z,2.85
2023-02-14T09:45:15.571Z,2.87
2023-02-14T09:50:54.563Z,2.88
2023-02-14T09:56:26.515Z,2.90
2023-02-14T10:02:00.138Z,2.93
2023-02-14T10:08:08.183Z,2.95
2023-02-14T10:13:47.165Z,2.96
2023-02-14T10:19:32.571Z,2.99
2023-02-14T10:25:08.640Z,3.01
2023-02-14T10:30:42.407Z,3.03
2023-02-14T10:36:51.913Z,3.06
2023-02-14T10:42:30.145Z,3.09
2023-02-14T10:48:09.542Z,3.09
2023-02-14T10:53:54.812Z,3.09
2023-02-14T10:59:28.866Z,3.13
2023-02-14T11:05:01.702Z,3.15
2023-02-14T11:10:35.903Z,3.17
2023-02-14T11:16:12.588Z,3.20
2023-02-14T11:21:46.262Z,3.23
2023-02-14T11:27:18.341Z,3.24
2023-02-14T11:32:55.306Z,3.26
2023-02-14T11:38:36.565Z,3.26
2023-02-14T11:44:22.435Z,3.28
2023-02-14T11:50:01.430Z,3.32
2023-02-14T11:55:34.011Z,3.33
2023-02-14T12:01:06.124Z,3.36
2023-02-14T12:06:37.472Z,3.38
2023-02-14T12:12:20.573Z,3.39
2023-02-14T12:18:15.150Z,3.39
2023-02-14T12:23:49.313Z,3.42
2023-02-14T12:29:39.574Z,3.45
2023-02-14T12:35:15.957Z,3.48
2023-02-14T12:41:05.303Z,3.49
2023-02-14T12:46:45.181Z,3.51
2023-02-14T12:52:37.616Z,3.53
2023-02-14T12:58:30.175Z,3.54
2023-02-14T13:04:23.280Z,3.55
2023-02-14T13:10:02.845Z,3.56
2023-02-14T13:15:39.228Z,3.59
2023-02-14T13:21:12.303Z,3.59
2023-02-14T13:26:45.458Z,3.62
2023-02-14T13:32:20.643Z,3.62
2023-02-14T13:38:07.171Z,3.63
2023-02-14T13:43:57.948Z,3.63
2023-02-14T13:49:34.993Z,3.65
2023-02-14T13:55:15.151Z,3.63
2023-02-14T14:00:48.278Z,3.64
2023-02-14T14:06:19.398Z,3.65
2023-02-14T14:11:51.534Z,3.65
2023-02-14T14:17:26.266Z,3.65
2023-02-14T14:22:59.089Z,3.65
2023-02-14T14:28:32.824Z,3.65
2023-02-14T14:34:03.752Z,3.63
2023-02-14T14:39:36.442Z,3.61
2023-02-14T14:45:18.694Z,3.61
2023-02-14T14:50:50.962Z,3.61
2023-02-14T14:56:27.828Z,3.60
2023-02-14T15:01:59.237Z,3.61
2023-02-14T15:07:34.804Z,3.59
2023-02-14T15:13:28.085Z,3.58
2023-02-14T15:19:21.433Z,3.57
2023-02-14T15:24:53.929Z,3.55
2023-02-14T15:30:34.865Z,3.55
2023-02-14T15:36:09.326Z,3.53
2023-02-14T15:41:44.504Z,3.53
2023-02-14T15:47:16.048Z,3.52
2023-02-14T15:52:48.646Z,3.52
2023-02-14T15:58:26.864Z,3.51
2023-02-14T16:04:00.615Z,3.51
2023-02-14T16:09:34.769Z,3.49
2023-02-14T16:15:21.673Z,3.49
2023-02-14T16:20:52.982Z,3.49
2023-02-14T16:26:24.110Z,3.48
2023-02-14T16:32:16.067Z,3.46
2023-02-14T16:37:50.042Z,3.45
2023-02-14T16:43:21.499Z,3.43
2023-02-14T16:48:53.179Z,3.42
2023-02-14T16:54:25.568Z,3.41
2023-02-14T16:59:57.318Z,3.41
2023-02-14T17:05:28.779Z,3.40
2023-02-14T17:11:02.362Z,3.38
2023-02-14T17:16:34.317Z,3.37
2023-02-14T17:22:05.662Z,3.37
2023-02-14T17:27:37.737Z,3.36
2023-02-14T17:33:09.129Z,3.35
2023-02-14T17:38:43.604Z,3.33
2023-02-14T17:44:14.641Z,3.32
2023-02-14T17:49:49.410Z,3.31
2023-02-14T17:55:20.439Z,3.31
2023-02-14T18:00:51.451Z,3.29
2023-02-14T18:06:23.366Z,3.27
2023-02-14T18:11:55.972Z,3.27
2023-02-14T18:17:27.296Z,3.27
2023-02-14T18:22:58.428Z,3.24
2023-02-14T18:28:29.754Z,3.24
2023-02-14T18:34:03.925Z,3.23
2023-02-14T18:39:35.276Z,3.22
2023-02-14T18:45:07.961Z,3.20
2023-02-14T18:50:39.336Z,3.18
2023-02-14T18:56:13.290Z,3.18
2023-02-14T19:01:45.657Z,3.18
2023-02-14T19:07:17.020Z,3.17
2023-02-14T19:12:48.564Z,3.17
2023-02-14T19:18:20.673Z,3.15
2023-02-14T19:23:53.688Z,3.16
2023-02-14T19:39:06.024Z,3.16
2023-02-14T19:49:28.682Z,3.15
2023-02-14T19:59:50.123Z,3.14
2023-02-14T20:10:12.206Z,3.16
2023-02-14T20:20:53.572Z,3.18
2023-02-14T20:31:16.723Z,3.10
2023-02-14T20:41:38.416Z,3.09
2023-02-14T20:52:00.011Z,3.08
2023-02-14T21:02:21.452Z,3.03
2023-02-14T21:12:43.191Z,2.99
2023-02-14T21:23:04.480Z,2.98
2023-02-14T21:33:25.596Z,2.94
2023-02-14T21:43:48.042Z,2.88
2023-02-14T21:54:10.020Z,2.84
2023-02-14T22:04:31.002Z,2.80
2023-02-14T22:14:51.962Z,2.76
2023-02-14T22:25:13.225Z,2.74
2023-02-14T22:35:34.574Z,2.69
2023-02-14T22:45:56.187Z,2.66
2023-02-14T22:56:47.676Z,2.63
2023-02-14T23:07:11.571Z,2.60
2023-02-14T23:17:51.108Z,2.57
2023-02-14T23:28:13.258Z,2.53
2023-02-14T23:38:34.610Z,2.51
2023-02-14T23:48:55.987Z,2.46
2023-02-14T23:59:17.385Z,2.41
